sensor_id;sensor_type;location;lat;lon;timestamp;pressure;altitude;pressure_sealevel;temperature;humidity
76998;BME280;65930;48.874;10.734;2023-03-17T00:01:53;95910.81;;;2.58;68.92
76998;BME280;65930;48.874;10.734;2023-03-17T00:04:26;95902.19;;;2.56;68.80
76998;BME280;65930;48.874;10.734;2023-03-17T00:06:54;95902.19;;;2.56;68.92
76998;BME280;65930;48.874;10.734;2023-03-17T00:09:23;95913.13;;;2.56;68.41
76998;BME280;65930;48.874;10.734;2023-03-17T00:11:51;95910.66;;;2.51;68.65
76998;BME280;65930;48.874;10.734;2023-03-17T00:14:20;95917.69;;;2.52;69.27
76998;BME280;65930;48.874;10.734;2023-03-17T00:16:49;95907.47;;;2.49;68.76
76998;BME280;65930;48.874;10.734;2023-03-17T00:19:25;95911.78;;;2.50;69.27
76998;BME280;65930;48.874;10.734;2023-03-17T00:21:56;95890.34;;;2.37;68.65
76998;BME280;65930;48.874;10.734;2023-03-17T00:24:24;95897.25;;;2.46;69.13
76998;BME280;65930;48.874;10.734;2023-03-17T00:26:53;95898.03;;;2.47;69.47
76998;BME280;65930;48.874;10.734;2023-03-17T00:29:21;95891.59;;;2.39;69.58
76998;BME280;65930;48.874;10.734;2023-03-17T00:31:48;95893.91;;;2.37;69.73
76998;BME280;65930;48.874;10.734;2023-03-17T00:34:18;95887.97;;;2.35;69.35
76998;BME280;65930;48.874;10.734;2023-03-17T00:36:49;95880.22;;;2.37;68.98
76998;BME280;65930;48.874;10.734;2023-03-17T00:39:17;95882.84;;;2.34;68.97
76998;BME280;65930;48.874;10.734;2023-03-17T00:41:46;95874.22;;;2.32;69.39
76998;BME280;65930;48.874;10.734;2023-03-17T00:44:14;95874.13;;;2.28;69.15
76998;BME280;65930;48.874;10.734;2023-03-17T00:46:43;95866.19;;;2.23;69.60
76998;BME280;65930;48.874;10.734;2023-03-17T00:49:14;95865.66;;;2.17;69.12
76998;BME280;65930;48.874;10.734;2023-03-17T00:51:48;95873.50;;;2.19;68.97
76998;BME280;65930;48.874;10.734;2023-03-17T00:54:18;95854.97;;;2.12;69.28
76998;BME280;65930;48.874;10.734;2023-03-17T00:56:48;95854.53;;;2.10;68.72
76998;BME280;65930;48.874;10.734;2023-03-17T00:59:23;95859.84;;;2.19;69.18
76998;BME280;65930;48.874;10.734;2023-03-17T01:01:53;95851.91;;;2.14;68.47
76998;BME280;65930;48.874;10.734;2023-03-17T01:04:21;95843.97;;;2.09;69.17
76998;BME280;65930;48.874;10.734;2023-03-17T01:06:50;95854.91;;;2.09;69.06
76998;BME280;65930;48.874;10.734;2023-03-17T01:09:24;95836.03;;;2.04;69.47
76998;BME280;65930;48.874;10.734;2023-03-17T01:11:53;95853.22;;;2.04;69.59
76998;BME280;65930;48.874;10.734;2023-03-17T01:14:22;95854.44;;;2.07;69.24
76998;BME280;65930;48.874;10.734;2023-03-17T01:16:51;95850.81;;;2.03;68.89
76998;BME280;65930;48.874;10.734;2023-03-17T01:19:20;95843.75;;;2.02;69.52
76998;BME280;65930;48.874;10.734;2023-03-17T01:21:48;95848.34;;;1.98;69.18
76998;BME280;65930;48.874;10.734;2023-03-17T01:24:17;95846.75;;;1.97;68.79
76998;BME280;65930;48.874;10.734;2023-03-17T01:26:45;95840.88;;;1.95;69.33
76998;BME280;65930;48.874;10.734;2023-03-17T01:29:13;95847.53;;;1.97;68.71
76998;BME280;65930;48.874;10.734;2023-03-17T01:31:42;95842.72;;;1.91;69.66
76998;BME280;65930;48.874;10.734;2023-03-17T01:34:10;95842.78;;;1.94;69.51
76998;BME280;65930;48.874;10.734;2023-03-17T01:36:38;95843.84;;;1.90;69.20
76998;BME280;65930;48.874;10.734;2023-03-17T01:39:06;95832.84;;;1.86;69.02
76998;BME280;65930;48.874;10.734;2023-03-17T01:41:36;95830.44;;;1.85;69.56
76998;BME280;65930;48.874;10.734;2023-03-17T01:44:05;95826.13;;;1.84;69.81
76998;BME280;65930;48.874;10.734;2023-03-17T01:46:35;95811.31;;;1.85;68.78
76998;BME280;65930;48.874;10.734;2023-03-17T01:49:15;95806.66;;;1.85;69.51
76998;BME280;65930;48.874;10.734;2023-03-17T01:51:51;95805.41;;;1.83;69.61
76998;BME280;65930;48.874;10.734;2023-03-17T01:54:28;95789.22;;;1.90;69.07
76998;BME280;65930;48.874;10.734;2023-03-17T01:57:02;95789.66;;;1.92;69.19
76998;BME280;65930;48.874;10.734;2023-03-17T01:59:41;95793.72;;;1.98;68.62
76998;BME280;65930;48.874;10.734;2023-03-17T02:02:16;95795.38;;;2.02;68.73
76998;BME280;65930;48.874;10.734;2023-03-17T02:04:45;95784.53;;;2.06;68.48
76998;BME280;65930;48.874;10.734;2023-03-17T02:07:13;95781.47;;;2.07;67.91
76998;BME280;65930;48.874;10.734;2023-03-17T02:09:41;95779.06;;;2.06;68.28
76998;BME280;65930;48.874;10.734;2023-03-17T02:12:12;95785.34;;;2.06;67.98
76998;BME280;65930;48.874;10.734;2023-03-17T02:14:40;95775.91;;;2.04;67.86
76998;BME280;65930;48.874;10.734;2023-03-17T02:17:09;95772.94;;;2.09;67.54
76998;BME280;65930;48.874;10.734;2023-03-17T02:19:38;95774.00;;;2.04;67.92
76998;BME280;65930;48.874;10.734;2023-03-17T02:22:07;95775.03;;;2.00;67.80
76998;BME280;65930;48.874;10.734;2023-03-17T02:24:39;95786.66;;;1.97;68.26
76998;BME280;65930;48.874;10.734;2023-03-17T02:27:13;95783.59;;;1.98;67.35
76998;BME280;65930;48.874;10.734;2023-03-17T02:29:43;95790.97;;;1.98;67.59
76998;BME280;65930;48.874;10.734;2023-03-17T02:32:13;95790.56;;;1.96;67.82
76998;BME280;65930;48.874;10.734;2023-03-17T02:34:44;95792.13;;;1.97;67.62
76998;BME280;65930;48.874;10.734;2023-03-17T02:37:13;95784.72;;;1.97;67.24
76998;BME280;65930;48.874;10.734;2023-03-17T02:39:42;95780.22;;;1.89;67.61
76998;BME280;65930;48.874;10.734;2023-03-17T02:42:10;95776.63;;;1.85;67.50
76998;BME280;65930;48.874;10.734;2023-03-17T02:44:39;95787.19;;;1.87;67.22
76998;BME280;65930;48.874;10.734;2023-03-17T02:47:07;95789.22;;;1.90;67.68
76998;BME280;65930;48.874;10.734;2023-03-17T02:49:37;95784.00;;;1.85;68.10
76998;BME280;65930;48.874;10.734;2023-03-17T02:52:06;95783.69;;;1.86;68.13
76998;BME280;65930;48.874;10.734;2023-03-17T02:54:36;95776.53;;;1.82;68.40
76998;BME280;65930;48.874;10.734;2023-03-17T02:57:04;95784.00;;;1.85;67.27
76998;BME280;65930;48.874;10.734;2023-03-17T02:59:33;95774.69;;;1.86;67.96
76998;BME280;65930;48.874;10.734;2023-03-17T03:02:01;95775.38;;;1.83;68.10
76998;BME280;65930;48.874;10.734;2023-03-17T03:04:28;95777.41;;;1.86;67.74
76998;BME280;65930;48.874;10.734;2023-03-17T03:06:57;95780.94;;;1.86;68.20
76998;BME280;65930;48.874;10.734;2023-03-17T03:09:25;95784.72;;;1.82;67.95
76998;BME280;65930;48.874;10.734;2023-03-17T03:11:54;95781.63;;;1.83;68.09
76998;BME280;65930;48.874;10.734;2023-03-17T03:14:22;95775.38;;;1.83;67.65
76998;BME280;65930;48.874;10.734;2023-03-17T03:16:50;95777.03;;;1.87;67.66
76998;BME280;65930;48.874;10.734;2023-03-17T03:19:19;95774.75;;;1.73;67.29
76998;BME280;65930;48.874;10.734;2023-03-17T03:21:48;95767.63;;;1.85;67.63
76998;BME280;65930;48.874;10.734;2023-03-17T03:24:16;95764.81;;;1.81;66.95
76998;BME280;65930;48.874;10.734;2023-03-17T03:26:44;95769.22;;;1.86;67.05
76998;BME280;65930;48.874;10.734;2023-03-17T03:29:13;95770.34;;;1.85;67.04
76998;BME280;65930;48.874;10.734;2023-03-17T03:31:42;95775.09;;;1.88;67.11
76998;BME280;65930;48.874;10.734;2023-03-17T03:34:10;95774.06;;;1.92;66.91
76998;BME280;65930;48.874;10.734;2023-03-17T03:36:38;95783.75;;;1.90;67.02
76998;BME280;65930;48.874;10.734;2023-03-17T03:39:06;95773.09;;;1.85;67.19
76998;BME280;65930;48.874;10.734;2023-03-17T03:41:35;95768.75;;;1.84;66.50
76998;BME280;65930;48.874;10.734;2023-03-17T03:44:03;95777.66;;;1.81;67.64
76998;BME280;65930;48.874;10.734;2023-03-17T03:46:33;95787.88;;;1.84;67.57
76998;BME280;65930;48.874;10.734;2023-03-17T03:49:01;95790.97;;;1.82;66.74
76998;BME280;65930;48.874;10.734;2023-03-17T03:51:29;95792.91;;;1.82;66.51
76998;BME280;65930;48.874;10.734;2023-03-17T03:53:57;95790.53;;;1.80;67.06
76998;BME280;65930;48.874;10.734;2023-03-17T03:56:26;95786.13;;;1.75;67.37
76998;BME280;65930;48.874;10.734;2023-03-17T03:58:54;95779.84;;;1.75;66.91
76998;BME280;65930;48.874;10.734;2023-03-17T04:01:23;95783.63;;;1.70;67.36
76998;BME280;65930;48.874;10.734;2023-03-17T04:03:52;95770.25;;;1.65;67.08
76998;BME280;65930;48.874;10.734;2023-03-17T04:06:20;95772.09;;;1.61;67.18
76998;BME280;65930;48.874;10.734;2023-03-17T04:08:48;95759.31;;;1.65;67.28
76998;BME280;65930;48.874;10.734;2023-03-17T04:11:18;95769.38;;;1.61;67.70
76998;BME280;65930;48.874;10.734;2023-03-17T04:13:46;95737.13;;;1.51;67.64
76998;BME280;65930;48.874;10.734;2023-03-17T04:16:13;95763.69;;;1.54;67.95
76998;BME280;65930;48.874;10.734;2023-03-17T04:18:41;95754.75;;;1.54;68.18
76998;BME280;65930;48.874;10.734;2023-03-17T04:21:11;95756.69;;;1.53;68.45
76998;BME280;65930;48.874;10.734;2023-03-17T04:23:44;95743.28;;;1.48;68.42
76998;BME280;65930;48.874;10.734;2023-03-17T04:26:12;95733.03;;;1.45;68.50
76998;BME280;65930;48.874;10.734;2023-03-17T04:28:40;95736.47;;;1.42;68.75
76998;BME280;65930;48.874;10.734;2023-03-17T04:31:10;95728.63;;;1.41;68.36
76998;BME280;65930;48.874;10.734;2023-03-17T04:33:38;95740.88;;;1.47;67.93
76998;BME280;65930;48.874;10.734;2023-03-17T04:36:17;95740.81;;;1.43;67.99
76998;BME280;65930;48.874;10.734;2023-03-17T04:38:45;95746.50;;;1.38;68.78
76998;BME280;65930;48.874;10.734;2023-03-17T04:41:13;95755.50;;;1.39;68.90
76998;BME280;65930;48.874;10.734;2023-03-17T04:43:41;95754.25;;;1.36;68.52
76998;BME280;65930;48.874;10.734;2023-03-17T04:46:09;95753.34;;;1.32;69.33
76998;BME280;65930;48.874;10.734;2023-03-17T04:48:38;95749.94;;;1.35;68.34
76998;BME280;65930;48.874;10.734;2023-03-17T04:51:06;95757.84;;;1.40;68.40
76998;BME280;65930;48.874;10.734;2023-03-17T04:53:38;95759.03;;;1.39;68.68
76998;BME280;65930;48.874;10.734;2023-03-17T04:56:06;95748.53;;;1.41;68.77
76998;BME280;65930;48.874;10.734;2023-03-17T04:58:34;95746.59;;;1.42;68.51
76998;BME280;65930;48.874;10.734;2023-03-17T05:01:02;95751.25;;;1.41;68.10
76998;BME280;65930;48.874;10.734;2023-03-17T05:03:31;95743.00;;;1.38;68.69
76998;BME280;65930;48.874;10.734;2023-03-17T05:05:59;95736.94;;;1.44;67.70
76998;BME280;65930;48.874;10.734;2023-03-17T05:08:28;95718.09;;;1.39;68.41
76998;BME280;65930;48.874;10.734;2023-03-17T05:10:57;95720.81;;;1.39;68.67
76998;BME280;65930;48.874;10.734;2023-03-17T05:13:26;95735.59;;;1.38;68.76
76998;BME280;65930;48.874;10.734;2023-03-17T05:15:55;95728.81;;;1.32;68.26
76998;BME280;65930;48.874;10.734;2023-03-17T05:18:25;95740.84;;;1.31;67.84
76998;BME280;65930;48.874;10.734;2023-03-17T05:20:53;95742.91;;;1.34;68.46
76998;BME280;65930;48.874;10.734;2023-03-17T05:23:21;95732.88;;;1.38;67.93
76998;BME280;65930;48.874;10.734;2023-03-17T05:25:49;95737.88;;;1.36;67.87
76998;BME280;65930;48.874;10.734;2023-03-17T05:28:19;95736.66;;;1.33;67.91
76998;BME280;65930;48.874;10.734;2023-03-17T05:30:48;95716.66;;;1.29;68.39
76998;BME280;65930;48.874;10.734;2023-03-17T05:33:16;95718.13;;;1.27;68.31
76998;BME280;65930;48.874;10.734;2023-03-17T05:35:44;95735.66;;;1.26;67.99
76998;BME280;65930;48.874;10.734;2023-03-17T05:38:13;95723.59;;;1.27;68.10
76998;BME280;65930;48.874;10.734;2023-03-17T05:40:42;95755.41;;;1.35;67.68
76998;BME280;65930;48.874;10.734;2023-03-17T05:43:10;95720.88;;;1.27;67.69
76998;BME280;65930;48.874;10.734;2023-03-17T05:45:39;95749.25;;;1.38;67.68
76998;BME280;65930;48.874;10.734;2023-03-17T05:48:07;95741.47;;;1.40;67.54
76998;BME280;65930;48.874;10.734;2023-03-17T05:50:38;95741.31;;;1.33;67.17
76998;BME280;65930;48.874;10.734;2023-03-17T05:53:07;95745.41;;;1.27;67.15
76998;BME280;65930;48.874;10.734;2023-03-17T05:55:35;95742.53;;;1.36;66.87
76998;BME280;65930;48.874;10.734;2023-03-17T05:58:03;95752.06;;;1.42;66.77
76998;BME280;65930;48.874;10.734;2023-03-17T06:00:32;95746.25;;;1.43;65.96
76998;BME280;65930;48.874;10.734;2023-03-17T06:03:03;95747.84;;;1.44;66.14
76998;BME280;65930;48.874;10.734;2023-03-17T06:05:31;95749.53;;;1.49;66.31
76998;BME280;65930;48.874;10.734;2023-03-17T06:08:00;95737.38;;;1.46;66.02
76998;BME280;65930;48.874;10.734;2023-03-17T06:10:28;95743.88;;;1.42;67.09
76998;BME280;65930;48.874;10.734;2023-03-17T06:12:56;95730.06;;;1.35;66.65
76998;BME280;65930;48.874;10.734;2023-03-17T06:15:24;95722.66;;;1.35;67.17
76998;BME280;65930;48.874;10.734;2023-03-17T06:17:52;95712.50;;;1.36;67.78
76998;BME280;65930;48.874;10.734;2023-03-17T06:20:21;95703.00;;;1.29;67.26
76998;BME280;65930;48.874;10.734;2023-03-17T06:22:49;95703.66;;;1.39;67.75
76998;BME280;65930;48.874;10.734;2023-03-17T06:25:30;95711.38;;;1.37;67.61
76998;BME280;65930;48.874;10.734;2023-03-17T06:27:58;95706.00;;;1.40;66.58
76998;BME280;65930;48.874;10.734;2023-03-17T06:30:28;95712.88;;;1.50;66.92
76998;BME280;65930;48.874;10.734;2023-03-17T06:32:56;95718.34;;;1.50;66.82
76998;BME280;65930;48.874;10.734;2023-03-17T06:35:25;95723.22;;;1.56;66.87
76998;BME280;65930;48.874;10.734;2023-03-17T06:37:54;95710.91;;;1.62;66.35
76998;BME280;65930;48.874;10.734;2023-03-17T06:40:22;95702.16;;;1.57;66.61
76998;BME280;65930;48.874;10.734;2023-03-17T06:42:50;95722.59;;;1.63;66.02
76998;BME280;65930;48.874;10.734;2023-03-17T06:45:18;95736.78;;;1.68;66.70
76998;BME280;65930;48.874;10.734;2023-03-17T06:47:46;95738.63;;;1.64;65.93
76998;BME280;65930;48.874;10.734;2023-03-17T06:50:13;95745.41;;;1.70;66.46
76998;BME280;65930;48.874;10.734;2023-03-17T06:52:43;95746.75;;;1.76;65.67
76998;BME280;65930;48.874;10.734;2023-03-17T06:55:12;95753.44;;;1.79;65.05
76998;BME280;65930;48.874;10.734;2023-03-17T06:57:40;95767.63;;;1.85;65.49
76998;BME280;65930;48.874;10.734;2023-03-17T07:00:10;95757.84;;;1.68;65.39
76998;BME280;65930;48.874;10.734;2023-03-17T07:02:39;95771.25;;;1.89;65.14
76998;BME280;65930;48.874;10.734;2023-03-17T07:05:08;95792.75;;;2.21;64.25
76998;BME280;65930;48.874;10.734;2023-03-17T07:07:36;95788.50;;;2.40;63.79
76998;BME280;65930;48.874;10.734;2023-03-17T07:10:06;95788.59;;;2.43;63.70
76998;BME280;65930;48.874;10.734;2023-03-17T07:12:35;95788.13;;;2.57;63.69
76998;BME280;65930;48.874;10.734;2023-03-17T07:15:04;95788.09;;;2.73;62.96
76998;BME280;65930;48.874;10.734;2023-03-17T07:17:32;95787.13;;;3.00;61.94
76998;BME280;65930;48.874;10.734;2023-03-17T07:20:00;95781.47;;;3.28;62.38
76998;BME280;65930;48.874;10.734;2023-03-17T07:22:28;95782.25;;;3.47;62.11
76998;BME280;65930;48.874;10.734;2023-03-17T07:24:57;95778.47;;;3.75;61.28
76998;BME280;65930;48.874;10.734;2023-03-17T07:27:26;95758.97;;;3.57;61.20
76998;BME280;65930;48.874;10.734;2023-03-17T07:29:54;95777.63;;;3.51;61.98
76998;BME280;65930;48.874;10.734;2023-03-17T07:32:22;95770.25;;;3.75;61.23
76998;BME280;65930;48.874;10.734;2023-03-17T07:34:50;95766.66;;;3.71;62.26
76998;BME280;65930;48.874;10.734;2023-03-17T07:37:18;95757.59;;;3.67;61.55
76998;BME280;65930;48.874;10.734;2023-03-17T07:39:46;95755.25;;;3.69;62.31
76998;BME280;65930;48.874;10.734;2023-03-17T07:42:15;95764.63;;;3.87;61.92
76998;BME280;65930;48.874;10.734;2023-03-17T07:44:45;95775.94;;;4.08;61.51
76998;BME280;65930;48.874;10.734;2023-03-17T07:47:13;95781.97;;;4.17;61.55
76998;BME280;65930;48.874;10.734;2023-03-17T07:49:42;95781.78;;;4.29;61.47
76998;BME280;65930;48.874;10.734;2023-03-17T07:52:10;95786.09;;;4.53;61.44
76998;BME280;65930;48.874;10.734;2023-03-17T07:54:38;95789.53;;;4.47;61.19
76998;BME280;65930;48.874;10.734;2023-03-17T07:57:09;95783.25;;;4.46;60.56
76998;BME280;65930;48.874;10.734;2023-03-17T07:59:37;95800.81;;;4.68;60.61
76998;BME280;65930;48.874;10.734;2023-03-17T08:02:13;95792.72;;;4.75;60.17
76998;BME280;65930;48.874;10.734;2023-03-17T08:04:42;95784.22;;;4.83;59.71
76998;BME280;65930;48.874;10.734;2023-03-17T08:07:11;95778.59;;;5.03;59.82
76998;BME280;65930;48.874;10.734;2023-03-17T08:09:40;95768.63;;;4.91;58.99
76998;BME280;65930;48.874;10.734;2023-03-17T08:12:09;95770.06;;;5.08;59.18
76998;BME280;65930;48.874;10.734;2023-03-17T08:14:37;95755.31;;;5.23;58.59
76998;BME280;65930;48.874;10.734;2023-03-17T08:17:05;95762.38;;;5.20;58.80
76998;BME280;65930;48.874;10.734;2023-03-17T08:19:34;95759.66;;;4.94;59.50
76998;BME280;65930;48.874;10.734;2023-03-17T08:22:03;95742.28;;;5.13;59.30
76998;BME280;65930;48.874;10.734;2023-03-17T08:24:31;95752.47;;;5.12;59.01
76998;BME280;65930;48.874;10.734;2023-03-17T08:26:59;95742.81;;;5.25;59.62
76998;BME280;65930;48.874;10.734;2023-03-17T08:29:27;95742.69;;;5.48;59.38
76998;BME280;65930;48.874;10.734;2023-03-17T08:31:56;95740.22;;;5.73;58.25
76998;BME280;65930;48.874;10.734;2023-03-17T08:34:24;95726.97;;;5.82;58.69
76998;BME280;65930;48.874;10.734;2023-03-17T08:36:54;95718.19;;;5.69;58.55
76998;BME280;65930;48.874;10.734;2023-03-17T08:39:22;95728.66;;;5.94;58.10
76998;BME280;65930;48.874;10.734;2023-03-17T08:41:50;95730.13;;;5.84;58.40
76998;BME280;65930;48.874;10.734;2023-03-17T08:44:19;95726.88;;;5.75;59.71
76998;BME280;65930;48.874;10.734;2023-03-17T08:46:47;95729.22;;;5.73;58.77
76998;BME280;65930;48.874;10.734;2023-03-17T08:49:15;95738.16;;;6.00;59.93
76998;BME280;65930;48.874;10.734;2023-03-17T08:51:43;95746.84;;;6.05;58.93
76998;BME280;65930;48.874;10.734;2023-03-17T08:54:13;95733.72;;;6.29;58.30
76998;BME280;65930;48.874;10.734;2023-03-17T08:56:41;95742.56;;;6.55;57.83
76998;BME280;65930;48.874;10.734;2023-03-17T08:59:10;95735.66;;;6.79;57.72
76998;BME280;65930;48.874;10.734;2023-03-17T09:01:38;95731.75;;;6.84;57.29
76998;BME280;65930;48.874;10.734;2023-03-17T09:04:07;95726.25;;;6.87;57.40
76998;BME280;65930;48.874;10.734;2023-03-17T09:06:35;95739.75;;;7.06;57.90
76998;BME280;65930;48.874;10.734;2023-03-17T09:09:07;95742.13;;;7.12;57.15
76998;BME280;65930;48.874;10.734;2023-03-17T09:11:37;95740.22;;;7.23;55.48
76998;BME280;65930;48.874;10.734;2023-03-17T09:14:05;95744.53;;;7.24;56.47
76998;BME280;65930;48.874;10.734;2023-03-17T09:16:33;95750.09;;;7.31;56.30
76998;BME280;65930;48.874;10.734;2023-03-17T09:19:01;95746.19;;;7.32;56.57
76998;BME280;65930;48.874;10.734;2023-03-17T09:21:30;95750.03;;;7.17;55.60
76998;BME280;65930;48.874;10.734;2023-03-17T09:23:58;95746.13;;;7.28;56.27
76998;BME280;65930;48.874;10.734;2023-03-17T09:26:28;95739.13;;;7.41;55.63
76998;BME280;65930;48.874;10.734;2023-03-17T09:28:57;95734.00;;;7.47;54.82
76998;BME280;65930;48.874;10.734;2023-03-17T09:31:25;95721.06;;;7.65;55.01
76998;BME280;65930;48.874;10.734;2023-03-17T09:33:53;95728.97;;;7.60;55.29
76998;BME280;65930;48.874;10.734;2023-03-17T09:36:21;95734.56;;;7.88;55.21
76998;BME280;65930;48.874;10.734;2023-03-17T09:38:49;95733.03;;;8.12;54.96
76998;BME280;65930;48.874;10.734;2023-03-17T09:41:47;95731.44;;;8.28;54.81
76998;BME280;65930;48.874;10.734;2023-03-17T09:44:30;95723.59;;;8.37;54.07
76998;BME280;65930;48.874;10.734;2023-03-17T09:47:18;95724.38;;;8.59;54.67
76998;BME280;65930;48.874;10.734;2023-03-17T09:49:51;95728.31;;;8.79;53.35
76998;BME280;65930;48.874;10.734;2023-03-17T09:52:27;95735.00;;;9.00;51.77
76998;BME280;65930;48.874;10.734;2023-03-17T09:54:56;95736.88;;;9.24;51.76
76998;BME280;65930;48.874;10.734;2023-03-17T09:57:29;95738.38;;;9.50;50.83
76998;BME280;65930;48.874;10.734;2023-03-17T10:00:03;95740.34;;;9.56;52.35
76998;BME280;65930;48.874;10.734;2023-03-17T10:02:35;95732.00;;;9.63;51.41
76998;BME280;65930;48.874;10.734;2023-03-17T10:05:12;95739.06;;;9.79;50.18
76998;BME280;65930;48.874;10.734;2023-03-17T10:07:52;95727.84;;;10.00;50.22
76998;BME280;65930;48.874;10.734;2023-03-17T10:10:28;95724.31;;;9.96;50.03
76998;BME280;65930;48.874;10.734;2023-03-17T10:13:10;95728.63;;;10.04;49.82
76998;BME280;65930;48.874;10.734;2023-03-17T10:15:48;95722.34;;;9.96;49.41
76998;BME280;65930;48.874;10.734;2023-03-17T10:18:23;95715.13;;;10.20;49.82
76998;BME280;65930;48.874;10.734;2023-03-17T10:20:56;95710.16;;;10.45;49.79
76998;BME280;65930;48.874;10.734;2023-03-17T10:23:29;95715.59;;;10.59;49.52
76998;BME280;65930;48.874;10.734;2023-03-17T10:26:04;95702.13;;;10.62;48.58
76998;BME280;65930;48.874;10.734;2023-03-17T10:28:34;95715.41;;;10.81;48.52
76998;BME280;65930;48.874;10.734;2023-03-17T10:31:14;95701.34;;;11.02;48.09
76998;BME280;65930;48.874;10.734;2023-03-17T10:33:45;95701.63;;;11.11;48.34
76998;BME280;65930;48.874;10.734;2023-03-17T10:36:17;95696.84;;;11.15;47.29
76998;BME280;65930;48.874;10.734;2023-03-17T10:38:58;95692.38;;;10.87;47.30
76998;BME280;65930;48.874;10.734;2023-03-17T10:41:28;95695.94;;;10.88;48.01
76998;BME280;65930;48.874;10.734;2023-03-17T10:43:57;95693.16;;;10.88;49.23
76998;BME280;65930;48.874;10.734;2023-03-17T10:46:27;95689.91;;;10.96;50.16
76998;BME280;65930;48.874;10.734;2023-03-17T10:49:02;95689.34;;;10.75;49.80
76998;BME280;65930;48.874;10.734;2023-03-17T10:51:35;95692.72;;;10.93;50.51
76998;BME280;65930;48.874;10.734;2023-03-17T10:54:08;95691.63;;;10.83;49.98
76998;BME280;65930;48.874;10.734;2023-03-17T10:56:38;95690.25;;;11.02;51.14
76998;BME280;65930;48.874;10.734;2023-03-17T10:59:16;95684.41;;;11.30;49.15
76998;BME280;65930;48.874;10.734;2023-03-17T11:01:52;95695.88;;;11.32;49.44
76998;BME280;65930;48.874;10.734;2023-03-17T11:04:27;95687.50;;;11.36;48.46
76998;BME280;65930;48.874;10.734;2023-03-17T11:06:56;95682.41;;;11.31;48.53
76998;BME280;65930;48.874;10.734;2023-03-17T11:09:26;95687.00;;;11.11;49.05
76998;BME280;65930;48.874;10.734;2023-03-17T11:12:04;95690.38;;;11.29;49.15
76998;BME280;65930;48.874;10.734;2023-03-17T11:14:32;95673.69;;;11.32;47.88
76998;BME280;65930;48.874;10.734;2023-03-17T11:17:07;95684.69;;;11.39;48.72
76998;BME280;65930;48.874;10.734;2023-03-17T11:19:52;95695.53;;;11.61;49.33
76998;BME280;65930;48.874;10.734;2023-03-17T11:22:31;95687.41;;;11.77;48.32
76998;BME280;65930;48.874;10.734;2023-03-17T11:25:09;95679.50;;;11.72;48.27
76998;BME280;65930;48.874;10.734;2023-03-17T11:27:46;95670.75;;;11.77;47.44
76998;BME280;65930;48.874;10.734;2023-03-17T11:30:26;95674.31;;;12.04;48.30
76998;BME280;65930;48.874;10.734;2023-03-17T11:33:05;95667.00;;;12.17;47.05
76998;BME280;65930;48.874;10.734;2023-03-17T11:35:46;95666.25;;;11.86;47.53
76998;BME280;65930;48.874;10.734;2023-03-17T11:38:25;95666.56;;;12.19;47.71
76998;BME280;65930;48.874;10.734;2023-03-17T11:44:03;95669.66;;;12.24;47.40
76998;BME280;65930;48.874;10.734;2023-03-17T11:46:37;95656.97;;;12.23;47.33
76998;BME280;65930;48.874;10.734;2023-03-17T11:49:13;95655.06;;;12.20;46.73
76998;BME280;65930;48.874;10.734;2023-03-17T11:51:54;95650.88;;;12.32;47.37
76998;BME280;65930;48.874;10.734;2023-03-17T11:54:37;95645.53;;;12.21;48.31
76998;BME280;65930;48.874;10.734;2023-03-17T11:57:13;95651.19;;;12.38;47.80
76998;BME280;65930;48.874;10.734;2023-03-17T11:59:49;95644.44;;;12.39;47.60
76998;BME280;65930;48.874;10.734;2023-03-17T12:02:24;95638.34;;;12.47;48.94
76998;BME280;65930;48.874;10.734;2023-03-17T12:05:00;95643.88;;;12.70;47.54
76998;BME280;65930;48.874;10.734;2023-03-17T12:07:34;95644.97;;;12.76;48.14
76998;BME280;65930;48.874;10.734;2023-03-17T12:10:15;95645.03;;;12.96;47.97
76998;BME280;65930;48.874;10.734;2023-03-17T12:12:50;95642.38;;;13.09;47.10
76998;BME280;65930;48.874;10.734;2023-03-17T12:15:27;95629.13;;;12.97;48.82
76998;BME280;65930;48.874;10.734;2023-03-17T12:18:03;95630.25;;;12.99;48.05
76998;BME280;65930;48.874;10.734;2023-03-17T12:20:47;95634.38;;;13.14;47.92
76998;BME280;65930;48.874;10.734;2023-03-17T12:23:27;95624.66;;;13.22;46.55
76998;BME280;65930;48.874;10.734;2023-03-17T12:26:02;95625.88;;;13.21;46.88
76998;BME280;65930;48.874;10.734;2023-03-17T12:28:38;95613.84;;;13.28;47.54
76998;BME280;65930;48.874;10.734;2023-03-17T12:31:13;95623.50;;;13.40;47.03
76998;BME280;65930;48.874;10.734;2023-03-17T12:33:53;95621.44;;;13.44;47.40
76998;BME280;65930;48.874;10.734;2023-03-17T12:36:26;95613.03;;;13.83;46.61
76998;BME280;65930;48.874;10.734;2023-03-17T12:38:58;95605.06;;;13.85;46.10
76998;BME280;65930;48.874;10.734;2023-03-17T12:41:53;95602.78;;;13.80;46.85
76998;BME280;65930;48.874;10.734;2023-03-17T12:44:38;95597.91;;;13.84;45.89
76998;BME280;65930;48.874;10.734;2023-03-17T12:47:26;95584.59;;;13.76;45.71
76998;BME280;65930;48.874;10.734;2023-03-17T12:50:33;95600.94;;;13.74;47.04
76998;BME280;65930;48.874;10.734;2023-03-17T12:53:28;95592.84;;;13.95;46.13
76998;BME280;65930;48.874;10.734;2023-03-17T12:56:01;95600.38;;;14.15;45.92
76998;BME280;65930;48.874;10.734;2023-03-17T12:58:38;95584.53;;;14.11;46.82
76998;BME280;65930;48.874;10.734;2023-03-17T13:01:15;95586.97;;;14.26;46.75
76998;BME280;65930;48.874;10.734;2023-03-17T13:04:01;95577.56;;;14.20;45.16
76998;BME280;65930;48.874;10.734;2023-03-17T13:06:38;95579.31;;;14.30;46.32
76998;BME280;65930;48.874;10.734;2023-03-17T13:09:32;95579.72;;;14.28;44.16
76998;BME280;65930;48.874;10.734;2023-03-17T13:12:03;95582.59;;;14.25;44.69
76998;BME280;65930;48.874;10.734;2023-03-17T13:14:41;95582.88;;;14.30;44.79
76998;BME280;65930;48.874;10.734;2023-03-17T13:17:29;95577.16;;;14.37;45.13
76998;BME280;65930;48.874;10.734;2023-03-17T13:20:11;95572.81;;;14.36;44.04
76998;BME280;65930;48.874;10.734;2023-03-17T13:22:41;95570.19;;;14.45;44.36